Time;durP1;ratioP1;P1;durP2;ratioP2;P2;SDS_P1;SDS_P2;PMS_P1;PMS_P2;Temp;Humidity;BMP_temperature;BMP_pressure;BME280_temperature;BME280_humidity;BME280_pressure;Samples;Min_cycle;Max_cycle;Signal;HPM_P1;HPM_P2
2022/01/17 00:00:36;;;;;;;31.10;26.00;;;2.30;99.90;;;;;;6214440;28;20550;-66
2022/01/17 00:03:41;;;;;;;32.47;25.00;;;2.30;99.90;;;;;;6228307;28;20472;-65
2022/01/17 00:06:44;;;;;;;34.70;27.13;;;2.20;99.90;;;;;;6228459;28;20822;-65
2022/01/17 00:09:48;;;;;;;34.07;26.70;;;2.10;99.90;;;;;;6227877;28;20476;-65
2022/01/17 00:12:53;;;;;;;38.43;29.27;;;2.10;99.90;;;;;;6227921;28;20468;-65
2022/01/17 00:16:03;;;;;;;36.37;30.10;;;2.10;99.90;;;;;;6227041;28;20487;-65
2022/01/17 00:19:34;;;;;;;43.30;29.83;;;2.00;99.90;;;;;;6228030;28;20523;-66
2022/01/17 00:22:39;;;;;;;43.63;32.83;;;1.90;99.90;;;;;;6228217;28;20472;-65
2022/01/17 00:25:42;;;;;;;46.43;32.80;;;1.80;99.90;;;;;;6228355;28;20471;-65
2022/01/17 00:28:45;;;;;;;50.43;33.97;;;1.70;99.90;;;;;;6228858;28;20476;-66
2022/01/17 00:31:48;;;;;;;39.63;31.10;;;1.70;99.90;;;;;;6227632;28;20484;-66
2022/01/17 00:34:53;;;;;;;49.17;33.57;;;1.70;99.90;;;;;;6227701;28;20950;-66
2022/01/17 00:37:56;;;;;;;47.03;30.67;;;1.60;99.90;;;;;;6227413;28;20479;-66
2022/01/17 00:40:59;;;;;;;41.07;31.00;;;1.70;99.90;;;;;;6227562;28;20475;-66
2022/01/17 00:44:03;;;;;;;41.27;31.17;;;1.70;99.90;;;;;;6227494;28;20468;-65
2022/01/17 00:47:07;;;;;;;46.03;32.03;;;1.70;99.90;;;;;;6227388;28;20798;-65
2022/01/17 00:50:12;;;;;;;42.97;31.70;;;1.70;99.90;;;;;;6226986;28;20479;-66
2022/01/17 00:53:15;;;;;;;42.33;31.07;;;1.70;99.90;;;;;;6227223;28;20476;-66
2022/01/17 00:56:20;;;;;;;37.70;29.73;;;1.80;99.90;;;;;;6226955;28;20476;-66
2022/01/17 00:59:24;;;;;;;42.33;31.87;;;1.80;99.90;;;;;;6227190;28;20983;-65
2022/01/17 01:02:27;;;;;;;43.10;31.33;;;1.90;99.90;;;;;;6225896;28;20467;-64
2022/01/17 01:05:31;;;;;;;43.60;33.90;;;1.90;99.90;;;;;;6226544;28;20452;-65
2022/01/17 01:08:34;;;;;;;39.47;30.87;;;1.80;99.90;;;;;;6227127;28;20443;-65
2022/01/17 01:11:38;;;;;;;43.43;31.03;;;1.80;99.90;;;;;;6226145;28;20467;-66
2022/01/17 01:14:43;;;;;;;39.77;30.97;;;1.80;99.90;;;;;;6227195;28;20479;-65
2022/01/17 01:17:51;;;;;;;37.60;29.47;;;1.90;99.90;;;;;;6227167;28;20452;-65
2022/01/17 01:21:21;;;;;;;39.83;30.40;;;1.90;99.90;;;;;;6226254;28;20849;-65
2022/01/17 01:27:53;;;;;;;37.37;28.40;;;2.00;99.90;;;;;;6226309;28;20487;-65
2022/01/17 01:30:59;;;;;;;39.73;30.33;;;2.00;99.90;;;;;;6226465;28;20839;-65
2022/01/17 01:34:04;;;;;;;43.10;31.47;;;2.10;99.90;;;;;;6226329;28;20503;-65
2022/01/17 01:37:09;;;;;;;41.53;31.37;;;2.10;99.90;;;;;;6226211;28;20464;-65
2022/01/17 01:40:13;;;;;;;36.33;29.03;;;2.20;99.90;;;;;;6225754;28;20491;-65
2022/01/17 01:43:16;;;;;;;37.87;27.70;;;2.20;99.90;;;;;;6226190;28;20471;-65
2022/01/17 01:46:20;;;;;;;41.50;28.03;;;2.20;99.90;;;;;;6225944;28;20468;-65
2022/01/17 01:49:24;;;;;;;40.50;30.60;;;2.10;99.90;;;;;;6225742;28;20475;-64
2022/01/17 01:52:29;;;;;;;35.53;28.57;;;2.10;99.90;;;;;;6225503;28;21024;-65
2022/01/17 01:55:32;;;;;;;39.93;29.83;;;2.10;99.90;;;;;;6225526;28;20480;-65
2022/01/17 01:58:35;;;;;;;37.33;27.60;;;2.10;99.90;;;;;;6225459;28;20472;-65
2022/01/17 02:01:38;;;;;;;40.60;28.67;;;2.10;99.90;;;;;;6225543;28;20483;-65
2022/01/17 02:04:43;;;;;;;35.30;25.43;;;2.10;99.90;;;;;;6225494;28;20464;-65
2022/01/17 02:07:48;;;;;;;33.97;27.23;;;2.10;99.90;;;;;;6220329;28;20472;-65
2022/01/17 02:10:51;;;;;;;37.53;29.10;;;2.00;99.90;;;;;;6225082;28;20486;-65
2022/01/17 02:13:54;;;;;;;39.30;28.23;;;2.00;99.90;;;;;;6225009;28;20476;-65
2022/01/17 02:17:02;;;;;;;35.93;27.73;;;2.00;99.90;;;;;;6225143;28;20479;-66
2022/01/17 02:20:09;;;;;;;42.67;28.17;;;2.00;99.90;;;;;;6225259;28;20476;-65
2022/01/17 02:23:14;;;;;;;35.23;27.67;;;2.00;99.90;;;;;;6224975;28;20475;-65
2022/01/17 02:26:19;;;;;;;36.57;28.43;;;2.00;99.90;;;;;;6225489;28;20463;-65
2022/01/17 02:29:22;;;;;;;34.27;27.23;;;1.90;99.90;;;;;;6225409;28;20510;-65
2022/01/17 02:32:25;;;;;;;38.23;29.47;;;1.90;99.90;;;;;;6225058;28;20983;-65
2022/01/17 02:35:30;;;;;;;42.13;29.37;;;1.90;99.90;;;;;;6224913;28;20948;-65
2022/01/17 02:38:33;;;;;;;37.30;27.43;;;1.90;99.90;;;;;;6227062;28;20424;-65
2022/01/17 02:41:39;;;;;;;41.17;28.83;;;1.80;99.90;;;;;;6230094;28;20490;-65
2022/01/17 02:44:45;;;;;;;35.77;29.73;;;1.60;99.90;;;;;;6230307;28;20435;-65
2022/01/17 02:47:48;;;;;;;35.40;26.67;;;1.70;99.90;;;;;;6229543;28;20462;-65
2022/01/17 02:50:53;;;;;;;39.17;28.63;;;1.60;99.90;;;;;;6229629;28;20956;-64
2022/01/17 02:53:57;;;;;;;37.60;28.77;;;1.50;99.90;;;;;;6229655;28;20959;-64
2022/01/17 02:57:00;;;;;;;38.83;28.77;;;1.70;99.90;;;;;;6229319;28;20529;-64
2022/01/17 03:00:05;;;;;;;39.87;29.00;;;1.60;99.90;;;;;;6229794;28;20483;-64
2022/01/17 03:03:13;;;;;;;35.87;28.10;;;1.70;99.90;;;;;;6230262;28;20514;-64
2022/01/17 03:06:19;;;;;;;37.47;25.90;;;1.70;99.90;;;;;;6229510;28;20487;-64
2022/01/17 03:09:24;;;;;;;33.10;25.47;;;1.70;99.90;;;;;;6230248;28;20499;-64
2022/01/17 03:12:27;;;;;;;40.63;28.20;;;1.80;99.90;;;;;;6224876;28;20483;-64
2022/01/17 03:15:30;;;;;;;37.33;26.83;;;1.90;99.90;;;;;;6231046;28;21003;-65
2022/01/17 03:18:36;;;;;;;34.77;26.10;;;1.90;99.90;;;;;;6229455;28;20468;-64
2022/01/17 03:21:41;;;;;;;43.63;27.03;;;2.00;99.90;;;;;;6229236;28;20483;-65
2022/01/17 03:24:44;;;;;;;33.70;25.97;;;2.00;99.90;;;;;;6228974;28;20806;-64
2022/01/17 03:27:47;;;;;;;34.10;26.53;;;2.00;99.90;;;;;;6229099;28;20537;-65
2022/01/17 03:30:50;;;;;;;34.57;25.33;;;2.00;99.90;;;;;;6229070;28;20801;-65
2022/01/17 03:33:53;;;;;;;32.20;25.37;;;2.00;99.90;;;;;;6229025;28;20479;-64
2022/01/17 03:36:58;;;;;;;33.03;26.07;;;2.00;99.90;;;;;;6228356;28;20939;-65
2022/01/17 03:40:01;;;;;;;36.23;26.10;;;1.90;99.90;;;;;;6228719;28;20499;-65
2022/01/17 03:43:05;;;;;;;30.03;25.20;;;1.80;99.90;;;;;;6228993;28;20472;-65
2022/01/17 03:46:08;;;;;;;33.50;25.60;;;1.80;99.90;;;;;;6228738;28;20467;-65
2022/01/17 03:49:11;;;;;;;36.60;26.70;;;1.70;99.90;;;;;;6228186;28;20480;-65
2022/01/17 03:52:16;;;;;;;31.40;24.23;;;1.70;99.90;;;;;;6228301;28;20483;-65
2022/01/17 03:55:21;;;;;;;35.63;25.70;;;1.70;99.90;;;;;;6228527;28;20480;-64
2022/01/17 03:58:26;;;;;;;35.07;26.20;;;1.80;99.90;;;;;;6228737;28;20476;-64
2022/01/17 04:01:29;;;;;;;30.60;25.87;;;1.70;99.90;;;;;;6228466;28;20483;-64
2022/01/17 04:04:32;;;;;;;31.90;24.10;;;1.70;99.90;;;;;;6228258;28;20475;-65
2022/01/17 04:07:37;;;;;;;38.50;26.30;;;1.70;99.90;;;;;;6228245;28;20649;-65
2022/01/17 04:10:41;;;;;;;34.00;25.70;;;1.60;99.90;;;;;;6227847;28;20487;-65
2022/01/17 04:13:44;;;;;;;39.37;25.30;;;1.60;99.90;;;;;;6228130;28;20483;-65
2022/01/17 04:16:47;;;;;;;38.93;27.77;;;1.60;99.90;;;;;;6218754;28;20490;-65
2022/01/17 04:19:52;;;;;;;35.00;24.60;;;1.60;99.90;;;;;;6227621;28;20562;-65
2022/01/17 04:23:00;;;;;;;37.33;24.87;;;1.60;99.90;;;;;;6227871;28;20476;-65
2022/01/17 04:26:03;;;;;;;32.53;23.60;;;1.60;99.90;;;;;;6227525;28;20472;-65
2022/01/17 04:29:06;;;;;;;36.40;25.20;;;1.60;99.90;;;;;;6227552;28;20859;-65
2022/01/17 04:32:09;;;;;;;31.90;25.60;;;1.60;99.90;;;;;;6227643;28;20480;-65
2022/01/17 04:35:14;;;;;;;30.90;23.93;;;1.50;99.90;;;;;;6227246;28;20479;-65
2022/01/17 04:38:21;;;;;;;36.10;25.33;;;1.50;99.90;;;;;;6227465;28;20534;-65
2022/01/17 04:41:35;;;;;;;29.80;24.27;;;1.50;99.90;;;;;;6226823;28;20484;-65
2022/01/17 04:47:58;;;;;;;33.00;25.67;;;1.40;99.90;;;;;;6227781;28;20483;-65
2022/01/17 04:51:02;;;;;;;30.50;25.37;;;1.10;99.90;;;;;;6227219;28;20484;-64
2022/01/17 04:54:26;;;;;;;34.83;26.00;;;1.10;99.90;;;;;;6227189;28;20471;-64
2022/01/17 04:57:29;;;;;;;36.17;26.67;;;1.10;99.90;;;;;;6227291;28;20472;-65
2022/01/17 05:00:32;;;;;;;35.60;25.90;;;1.10;99.90;;;;;;6226842;28;20480;-65
2022/01/17 05:03:35;;;;;;;30.00;25.83;;;1.10;99.90;;;;;;6226996;28;20463;-64
2022/01/17 05:06:38;;;;;;;34.83;26.17;;;1.10;99.90;;;;;;6227177;28;20480;-66
2022/01/17 05:09:44;;;;;;;33.97;26.90;;;1.10;99.90;;;;;;6226305;28;20480;-66
2022/01/17 05:12:47;;;;;;;32.63;26.47;;;1.10;99.90;;;;;;6226710;28;20471;-65
2022/01/17 05:16:03;;;;;;;36.37;25.90;;;1.10;99.90;;;;;;6226427;28;20511;-65
2022/01/17 05:22:31;;;;;;;36.27;27.70;;;1.10;99.90;;;;;;6226738;28;20484;-64
2022/01/17 05:25:35;;;;;;;37.93;27.67;;;1.10;99.90;;;;;;6226558;28;20483;-64
2022/01/17 05:28:39;;;;;;;41.73;28.80;;;1.10;99.90;;;;;;6226340;28;20468;-65
2022/01/17 05:31:42;;;;;;;37.33;26.97;;;1.10;99.90;;;;;;6226102;28;20546;-65
2022/01/17 05:34:45;;;;;;;36.37;29.10;;;1.10;99.90;;;;;;6225967;28;20476;-65
2022/01/17 05:37:49;;;;;;;36.83;28.30;;;1.10;99.90;;;;;;6226136;28;20498;-66
2022/01/17 05:40:53;;;;;;;37.70;26.37;;;1.10;99.90;;;;;;6225634;28;20494;-66
2022/01/17 05:43:57;;;;;;;39.13;27.63;;;1.10;99.90;;;;;;6226050;28;20960;-65
2022/01/17 05:47:01;;;;;;;35.70;28.43;;;1.10;99.90;;;;;;6226213;28;20475;-65
2022/01/17 05:50:05;;;;;;;34.33;27.30;;;1.20;99.90;;;;;;6225151;28;20480;-66
2022/01/17 05:53:10;;;;;;;40.90;27.50;;;1.30;99.90;;;;;;6225845;28;20975;-64
2022/01/17 05:56:14;;;;;;;33.10;25.33;;;1.30;99.90;;;;;;6225328;28;20562;-69
2022/01/17 05:59:18;;;;;;;31.87;25.17;;;1.30;99.90;;;;;;6225344;28;20495;-65
2022/01/17 06:02:21;;;;;;;31.50;23.47;;;1.30;99.90;;;;;;6225178;28;20976;-65
2022/01/17 06:05:25;;;;;;;31.83;24.17;;;1.30;99.90;;;;;;6225451;28;20861;-65
2022/01/17 06:08:28;;;;;;;34.77;24.57;;;1.30;99.90;;;;;;6224637;28;20467;-65
2022/01/17 06:11:34;;;;;;;32.83;24.53;;;1.30;99.90;;;;;;6225939;28;20464;-65
2022/01/17 06:14:38;;;;;;;33.37;25.13;;;1.30;99.90;;;;;;6224839;28;20827;-65
2022/01/17 06:17:41;;;;;;;35.07;27.60;;;1.30;99.90;;;;;;6225876;28;20484;-64
2022/01/17 06:20:44;;;;;;;36.27;29.43;;;1.30;99.90;;;;;;6225416;28;20469;-64
2022/01/17 06:23:48;;;;;;;30.80;24.70;;;1.30;99.90;;;;;;6210458;28;20479;-65
2022/01/17 06:26:52;;;;;;;31.73;23.47;;;1.30;99.90;;;;;;6224227;28;20467;-65
2022/01/17 06:29:57;;;;;;;38.17;25.17;;;1.40;99.90;;;;;;6224079;28;20480;-65
2022/01/17 06:33:02;;;;;;;32.30;23.70;;;1.50;99.90;;;;;;6225101;28;20836;-65
2022/01/17 06:36:06;;;;;;;31.57;25.53;;;1.50;99.90;;;;;;6225205;28;20476;-65
2022/01/17 06:39:10;;;;;;;35.43;24.70;;;1.40;99.90;;;;;;6224728;28;20472;-65
2022/01/17 06:42:15;;;;;;;30.87;24.43;;;1.40;99.90;;;;;;6225585;28;20467;-65
2022/01/17 06:45:19;;;;;;;32.60;23.70;;;1.40;99.90;;;;;;6226041;28;20460;-65
2022/01/17 06:48:22;;;;;;;31.47;25.57;;;1.50;99.90;;;;;;6225500;28;20595;-66
2022/01/17 06:51:26;;;;;;;33.53;25.13;;;1.50;99.90;;;;;;6226834;28;20468;-65
2022/01/17 06:54:29;;;;;;;29.13;23.80;;;1.60;99.90;;;;;;6234496;28;20459;-65
2022/01/17 06:57:33;;;;;;;37.30;25.20;;;1.70;99.90;;;;;;6244790;28;20754;-65
2022/01/17 07:00:37;;;;;;;35.27;25.30;;;1.80;99.90;;;;;;6230268;28;20472;-66
2022/01/17 07:03:40;;;;;;;36.93;25.30;;;1.80;99.90;;;;;;6224328;28;20813;-66
2022/01/17 07:06:43;;;;;;;32.03;24.30;;;1.90;99.90;;;;;;6237775;28;20467;-66
2022/01/17 07:09:46;;;;;;;31.33;25.07;;;1.90;99.90;;;;;;6249946;23;20554;-66
2022/01/17 07:12:51;;;;;;;35.23;25.73;;;1.90;99.90;;;;;;6262297;28;20482;-66
2022/01/17 07:15:54;;;;;;;34.33;25.03;;;1.90;99.90;;;;;;6268532;28;20474;-65
2022/01/17 07:18:57;;;;;;;40.67;28.20;;;2.00;99.90;;;;;;6249536;28;20462;-66
2022/01/17 07:22:00;;;;;;;33.83;27.47;;;2.00;99.90;;;;;;6224524;28;20807;-65
2022/01/17 07:25:13;;;;;;;38.30;28.60;;;2.00;99.90;;;;;;6227063;28;20506;-65
2022/01/17 07:28:18;;;;;;;42.00;30.20;;;1.90;99.90;;;;;;6219929;28;20467;-65
2022/01/17 07:31:21;;;;;;;35.30;30.23;;;1.70;99.90;;;;;;6228797;28;20479;-67
2022/01/17 07:34:25;;;;;;;37.90;28.47;;;1.70;99.90;;;;;;6228582;28;20506;-65
2022/01/17 07:37:28;;;;;;;41.00;30.30;;;1.70;99.90;;;;;;6228745;28;20862;-65
2022/01/17 07:40:32;;;;;;;35.23;26.80;;;1.70;99.90;;;;;;6228323;28;20486;-65
2022/01/17 07:43:37;;;;;;;41.53;30.27;;;1.80;99.90;;;;;;6228856;28;20478;-65
2022/01/17 07:46:50;;;;;;;36.57;29.53;;;1.90;99.90;;;;;;6228673;28;20573;-65
2022/01/17 07:49:53;;;;;;;40.10;28.93;;;2.00;99.90;;;;;;6228180;28;20479;-65
2022/01/17 07:53:11;;;;;;;36.80;30.33;;;2.10;99.90;;;;;;6228119;28;20538;-65
2022/01/17 07:56:14;;;;;;;47.50;31.43;;;2.00;99.90;;;;;;6228220;28;20534;-65
2022/01/17 07:59:19;;;;;;;40.23;32.20;;;2.00;99.90;;;;;;6227531;28;20499;-65
2022/01/17 08:02:22;;;;;;;42.43;33.97;;;2.10;99.90;;;;;;6228468;28;20471;-65
2022/01/17 08:05:26;;;;;;;56.03;37.90;;;2.10;99.90;;;;;;6230648;28;20484;-65
2022/01/17 08:08:29;;;;;;;42.50;31.90;;;2.00;99.90;;;;;;6231619;28;20464;-65
2022/01/17 08:11:34;;;;;;;55.93;36.97;;;2.00;99.90;;;;;;6228975;28;20482;-65
2022/01/17 08:14:40;;;;;;;46.67;32.57;;;2.10;99.90;;;;;;6230132;28;20904;-65
2022/01/17 08:17:45;;;;;;;41.27;31.67;;;2.20;99.90;;;;;;6228093;28;20463;-64
2022/01/17 08:20:48;;;;;;;44.17;31.83;;;2.30;99.90;;;;;;6227769;28;20468;-64
2022/01/17 08:23:52;;;;;;;33.40;27.40;;;2.30;99.90;;;;;;6227815;28;20498;-64
2022/01/17 08:26:56;;;;;;;43.43;31.20;;;2.40;99.90;;;;;;6227777;28;20463;-64
2022/01/17 08:30:01;;;;;;;38.77;28.73;;;2.50;99.90;;;;;;6218332;28;20483;-65
2022/01/17 08:33:24;;;;;;;39.20;28.60;;;2.50;99.90;;;;;;6227211;28;20472;-65
2022/01/17 08:36:28;;;;;;;38.10;29.27;;;2.60;99.90;;;;;;6226492;28;20807;-65
2022/01/17 08:39:31;;;;;;;41.47;34.00;;;2.60;99.90;;;;;;6228151;28;20476;-65
2022/01/17 08:42:36;;;;;;;37.03;29.30;;;2.60;99.90;;;;;;6242130;28;20498;-65
2022/01/17 08:45:41;;;;;;;39.97;34.60;;;2.50;99.90;;;;;;6227152;28;20480;-65
2022/01/17 08:48:45;;;;;;;38.33;29.30;;;2.60;99.90;;;;;;6227531;28;20539;-63
2022/01/17 08:51:48;;;;;;;41.17;30.07;;;2.60;99.90;;;;;;6226801;28;20493;-64
2022/01/17 08:54:53;;;;;;;42.67;32.37;;;2.70;99.90;;;;;;6231948;28;20796;-64
2022/01/17 08:57:59;;;;;;;41.43;29.73;;;2.70;99.90;;;;;;6244055;28;21121;-65
2022/01/17 09:01:04;;;;;;;35.67;31.00;;;2.80;99.90;;;;;;6227490;28;20464;-65
2022/01/17 09:04:07;;;;;;;39.90;29.63;;;2.80;99.90;;;;;;6227331;28;20570;-65
2022/01/17 09:07:12;;;;;;;38.70;29.37;;;2.80;99.90;;;;;;6226951;28;20463;-65
2022/01/17 09:10:16;;;;;;;42.33;29.83;;;2.70;99.90;;;;;;6236544;28;20514;-64
2022/01/17 09:13:19;;;;;;;34.60;28.30;;;2.80;99.90;;;;;;6268201;28;20465;-65
2022/01/17 09:16:24;;;;;;;35.67;28.90;;;2.80;99.90;;;;;;6276565;28;20462;-64
2022/01/17 09:19:28;;;;;;;34.63;27.63;;;2.90;99.90;;;;;;6275793;28;20478;-64
2022/01/17 09:22:32;;;;;;;32.70;27.50;;;2.90;99.90;;;;;;6275782;28;20486;-64
2022/01/17 09:25:35;;;;;;;38.77;30.90;;;2.90;99.90;;;;;;6268472;28;20935;-65
2022/01/17 09:28:38;;;;;;;42.63;31.60;;;3.00;99.90;;;;;;6250515;28;20856;-64
2022/01/17 09:31:43;;;;;;;39.20;31.90;;;2.90;99.90;;;;;;6250583;28;20593;-65
2022/01/17 09:34:46;;;;;;;37.50;29.57;;;2.80;99.90;;;;;;6245654;28;20482;-66
2022/01/17 09:37:50;;;;;;;41.80;29.20;;;2.90;99.90;;;;;;6250526;28;20821;-64
2022/01/17 09:40:54;;;;;;;41.30;31.80;;;2.90;99.90;;;;;;6251403;28;20481;-64
2022/01/17 09:44:17;;;;;;;37.57;30.10;;;2.90;99.90;;;;;;6251376;28;20565;-65
2022/01/17 09:47:21;;;;;;;41.70;31.30;;;2.90;99.90;;;;;;6250231;28;20471;-64
2022/01/17 09:50:33;;;;;;;37.60;30.57;;;2.90;99.90;;;;;;6250110;28;20553;-64
2022/01/17 09:53:39;;;;;;;37.70;29.83;;;3.00;99.90;;;;;;6250186;28;20785;-64
2022/01/17 09:56:43;;;;;;;36.90;29.27;;;3.00;99.90;;;;;;6251072;28;20451;-64
2022/01/17 09:59:46;;;;;;;37.03;29.53;;;3.10;99.90;;;;;;6249615;28;20823;-64
2022/01/17 10:02:52;;;;;;;38.93;31.20;;;3.20;99.90;;;;;;6249715;28;20458;-65
2022/01/17 10:05:56;;;;;;;37.50;30.80;;;3.40;99.90;;;;;;6250009;28;20478;-65
2022/01/17 10:09:11;;;;;;;40.50;31.27;;;3.70;99.90;;;;;;6249644;28;20835;-65
2022/01/17 10:12:16;;;;;;;39.23;30.40;;;3.90;99.90;;;;;;6249989;28;20533;-65
2022/01/17 10:15:25;;;;;;;40.43;28.37;;;4.10;99.90;;;;;;6250285;28;20543;-65
2022/01/17 10:18:34;;;;;;;39.97;30.07;;;4.50;99.90;;;;;;6250279;28;20486;-64
2022/01/17 10:21:42;;;;;;;34.30;29.40;;;4.80;99.90;;;;;;6249651;28;20475;-64
2022/01/17 10:24:57;;;;;;;31.40;26.07;;;5.20;99.90;;;;;;6249927;28;20508;-64
2022/01/17 10:28:35;;;;;;;35.83;26.80;;;5.60;98.90;;;;;;6249910;28;20482;-65
2022/01/17 10:35:15;;;;;;;36.47;28.50;;;6.60;96.90;;;;;;6250022;28;20478;-68
2022/01/17 10:38:21;;;;;;;30.37;26.90;;;7.00;95.70;;;;;;6249608;28;20487;-64
2022/01/17 10:41:26;;;;;;;45.13;35.20;;;7.30;95.20;;;;;;6249622;28;20534;-65
2022/01/17 10:44:37;;;;;;;43.07;32.17;;;7.60;94.30;;;;;;6249627;28;20482;-65
2022/01/17 10:47:43;;;;;;;66.97;41.33;;;7.80;93.30;;;;;;6249431;28;20474;-65
2022/01/17 10:50:50;;;;;;;87.00;57.93;;;8.10;92.80;;;;;;6225391;28;20465;-65
2022/01/17 10:53:55;;;;;;;85.93;56.27;;;8.30;92.40;;;;;;6224731;28;20793;-65
2022/01/17 10:56:58;;;;;;;83.93;60.50;;;8.70;92.10;;;;;;6225074;28;20492;-65
2022/01/17 11:00:06;;;;;;;70.10;53.33;;;9.10;91.20;;;;;;6227411;28;20468;-65
2022/01/17 11:03:12;;;;;;;40.53;32.73;;;9.50;89.80;;;;;;6229762;28;20486;-65
2022/01/17 11:06:23;;;;;;;49.60;43.40;;;9.70;88.20;;;;;;6229937;28;20471;-65
2022/01/17 11:09:28;;;;;;;38.10;31.07;;;10.20;84.50;;;;;;6228975;28;20480;-65
2022/01/17 11:12:31;;;;;;;32.67;27.40;;;10.10;83.10;;;;;;6236629;28;20475;-64
2022/01/17 11:15:36;;;;;;;27.97;24.20;;;9.70;83.70;;;;;;6252975;28;20958;-64
2022/01/17 11:18:43;;;;;;;31.53;25.60;;;9.30;85.20;;;;;;6253606;28;20825;-64
2022/01/17 11:21:47;;;;;;;24.87;21.97;;;9.80;88.20;;;;;;6242899;28;20483;-65
2022/01/17 11:24:51;;;;;;;26.27;23.47;;;12.80;81.20;;;;;;6229984;28;20472;-66
2022/01/17 11:27:55;;;;;;;28.57;25.80;;;17.40;62.60;;;;;;6229101;28;20476;-66
2022/01/17 11:31:00;;;;;;;29.80;26.70;;;21.80;47.60;;;;;;6237843;28;20483;-65
2022/01/17 11:34:04;;;;;;;27.17;24.57;;;24.80;36.60;;;;;;6252975;28;20306;-65
2022/01/17 11:37:10;;;;;;;28.90;26.00;;;26.60;31.30;;;;;;6253614;28;20783;-66
2022/01/17 11:40:15;;;;;;;34.73;31.23;;;28.60;28.50;;;;;;6252741;28;20237;-65
2022/01/17 11:43:22;;;;;;;30.70;27.93;;;30.30;26.30;;;;;;6244223;28;20239;-65
2022/01/17 11:46:27;;;;;;;32.80;30.00;;;31.80;24.20;;;;;;6252981;28;20224;-66
2022/01/17 11:49:35;;;;;;;30.98;28.17;;;32.70;23.40;;;;;;6252874;28;20232;-66
2022/01/17 11:52:39;;;;;;;29.77;27.38;;;33.40;21.90;;;;;;6253006;28;20242;-66
2022/01/17 11:55:47;;;;;;;32.08;29.10;;;33.80;21.50;;;;;;6254785;28;20239;-66
2022/01/17 11:58:51;;;;;;;34.65;31.52;;;34.60;20.00;;;;;;6253578;28;20244;-67
2022/01/17 12:02:30;;;;;;;20.92;19.10;;;35.00;19.60;;;;;;6258761;23;20232;-66
2022/01/17 12:05:35;;;;;;;7.82;6.20;;;35.70;17.40;;;;;;6252535;28;20555;-67
2022/01/17 12:08:40;;;;;;;4.28;3.25;;;34.30;16.20;;;;;;6252924;28;20219;-68
2022/01/17 12:11:43;;;;;;;3.58;2.72;;;33.90;15.50;;;;;;6251079;28;20228;-67
2022/01/17 12:14:54;;;;;;;2.65;1.60;;;34.40;15.30;;;;;;6251866;28;20209;-67
2022/01/17 12:18:27;;;;;;;4.28;1.30;;;34.50;14.60;;;;;;6252087;28;20228;-65
2022/01/17 12:21:33;;;;;;;1.98;1.50;;;33.70;14.30;;;;;;6252247;28;20291;-67
2022/01/17 12:24:40;;;;;;;2.40;1.17;;;32.70;15.40;;;;;;6251852;28;20586;-65
2022/01/17 12:27:44;;;;;;;3.25;1.65;;;33.40;15.40;;;;;;6250703;28;20232;-65
2022/01/17 12:30:49;;;;;;;4.30;2.58;;;34.10;15.70;;;;;;6251020;28;20236;-66
2022/01/17 12:34:13;;;;;;;2.72;1.85;;;34.80;15.50;;;;;;6275060;28;20229;-67
2022/01/17 12:37:35;;;;;;;9.30;8.35;;;35.40;14.40;;;;;;6276840;28;20288;-67
2022/01/17 12:40:41;;;;;;;10.73;9.57;;;34.20;13.40;;;;;;6254035;28;20231;-66
2022/01/17 12:43:45;;;;;;;10.75;1.50;;;34.00;14.80;;;;;;6251588;28;20710;-65
2022/01/17 12:46:50;;;;;;;27.67;24.73;;;34.30;13.50;;;;;;6246848;28;20223;-67
2022/01/17 12:49:54;;;;;;;76.95;62.88;;;34.60;13.70;;;;;;6251337;28;20606;-66
2022/01/17 12:52:58;;;;;;;4.22;1.20;;;35.10;13.50;;;;;;6251556;28;20228;-67
2022/01/17 12:56:06;;;;;;;22.05;10.95;;;35.00;13.20;;;;;;6251049;28;20552;-67
2022/01/17 12:59:10;;;;;;;3.80;1.27;;;34.60;13.00;;;;;;6250915;28;20232;-67
2022/01/17 13:02:13;;;;;;;9.77;6.32;;;33.40;13.80;;;;;;6250832;28;20575;-66
2022/01/17 13:05:22;;;;;;;9.57;5.30;;;33.20;13.60;;;;;;6249790;28;20838;-66
2022/01/17 13:08:25;;;;;;;3.70;1.92;;;32.90;13.80;;;;;;6249596;28;20239;-66
2022/01/17 13:11:31;;;;;;;3.00;0.90;;;30.70;14.40;;;;;;6249588;28;20235;-66
2022/01/17 13:14:34;;;;;;;1.50;0.93;;;29.70;15.30;;;;;;6249205;28;20616;-65
2022/01/17 13:17:38;;;;;;;4.83;0.70;;;29.80;15.30;;;;;;6249877;28;20206;-66
2022/01/17 13:20:41;;;;;;;3.70;0.80;;;29.70;15.30;;;;;;6249956;28;20242;-66
2022/01/17 13:23:49;;;;;;;1.00;0.43;;;30.50;15.40;;;;;;6250915;28;20210;-66
2022/01/17 13:26:57;;;;;;;4.80;0.70;;;31.20;14.80;;;;;;6250840;28;20227;-67
2022/01/17 13:30:07;;;;;;;1.40;1.30;;;30.30;14.70;;;;;;6250186;28;20247;-66
2022/01/17 13:33:11;;;;;;;1.00;0.50;;;30.00;15.80;;;;;;6268394;28;20235;-66
2022/01/17 13:36:21;;;;;;;1.90;1.20;;;30.00;15.00;;;;;;6275332;28;20223;-67
2022/01/17 13:39:25;;;;;;;5.00;0.70;;;29.10;15.70;;;;;;6268055;28;20597;-68
2022/01/17 13:42:30;;;;;;;1.10;0.60;;;28.10;16.20;;;;;;6250519;28;20581;-66
2022/01/17 13:45:39;;;;;;;1.23;0.57;;;27.10;16.90;;;;;;6250360;28;20229;-65
2022/01/17 13:48:45;;;;;;;8.80;2.33;;;25.00;17.90;;;;;;6251192;28;20573;-64
2022/01/17 13:51:48;;;;;;;4.80;3.20;;;23.30;19.50;;;;;;6251146;28;20233;-64
2022/01/17 13:54:52;;;;;;;2.00;0.97;;;21.50;20.20;;;;;;6250788;28;20239;-64
2022/01/17 13:58:18;;;;;;;4.20;2.10;;;20.30;21.60;;;;;;6251154;28;20303;-64
2022/01/17 14:01:21;;;;;;;3.10;1.23;;;19.10;22.30;;;;;;6249835;28;20244;-65
2022/01/17 14:04:29;;;;;;;4.60;1.20;;;17.80;23.60;;;;;;6251788;28;20225;-65
2022/01/17 14:07:33;;;;;;;3.67;1.80;;;16.40;25.00;;;;;;6251407;28;20553;-64
2022/01/17 14:10:36;;;;;;;7.23;1.40;;;15.60;26.40;;;;;;6250065;28;20475;-64
2022/01/17 14:13:47;;;;;;;1.70;1.33;;;15.00;27.10;;;;;;6249861;28;20475;-64
2022/01/17 14:16:50;;;;;;;5.33;2.23;;;14.60;27.50;;;;;;6251608;28;20471;-65
2022/01/17 14:19:53;;;;;;;3.07;1.67;;;14.10;28.10;;;;;;6249523;28;20513;-64
2022/01/17 14:22:56;;;;;;;3.17;0.83;;;13.90;28.70;;;;;;6249404;28;20475;-65
2022/01/17 14:26:00;;;;;;;0.90;0.80;;;13.70;29.20;;;;;;6249765;28;20470;-65
2022/01/17 14:29:08;;;;;;;1.47;1.20;;;13.60;29.40;;;;;;6249523;28;20966;-64
2022/01/17 14:32:13;;;;;;;1.00;0.90;;;13.50;30.30;;;;;;6259701;28;20556;-65
2022/01/17 14:35:16;;;;;;;4.43;1.13;;;13.20;30.60;;;;;;6277382;28;20489;-65
2022/01/17 14:38:19;;;;;;;2.00;0.87;;;13.00;31.50;;;;;;6278784;28;20982;-64
2022/01/17 14:41:32;;;;;;;1.13;0.70;;;12.80;32.30;;;;;;6256057;28;20490;-65
2022/01/17 14:44:39;;;;;;;1.43;0.70;;;12.80;32.30;;;;;;6254325;28;20560;-65
2022/01/17 14:47:45;;;;;;;1.17;0.70;;;12.80;32.30;;;;;;6254819;28;20514;-64
2022/01/17 14:50:48;;;;;;;0.90;0.70;;;12.70;32.70;;;;;;6254496;28;20913;-63
2022/01/17 14:53:56;;;;;;;1.27;0.77;;;12.50;32.40;;;;;;6245773;28;20454;-63
2022/01/17 15:00:46;;;;;;;1.00;0.50;;;12.20;33.10;;;;;;6254574;28;20471;-62
2022/01/17 15:03:54;;;;;;;0.90;0.63;;;12.10;33.50;;;;;;6254422;28;20477;-66
2022/01/17 15:06:57;;;;;;;0.60;0.60;;;12.00;33.70;;;;;;6254353;28;20474;-66
2022/01/17 15:10:00;;;;;;;2.67;0.70;;;11.90;34.10;;;;;;6253629;28;20483;-63
2022/01/17 15:13:06;;;;;;;4.43;1.80;;;11.80;34.50;;;;;;6253639;28;20818;-64
2022/01/17 15:16:11;;;;;;;1.50;0.90;;;11.70;34.60;;;;;;6253435;28;20814;-64
2022/01/17 15:19:18;;;;;;;1.17;0.80;;;11.60;34.90;;;;;;6253929;28;20471;-64
2022/01/17 15:22:22;;;;;;;1.13;0.73;;;11.50;35.10;;;;;;6253245;28;20788;-64
2022/01/17 15:25:25;;;;;;;1.10;0.70;;;11.50;35.30;;;;;;6253442;28;20474;-63
2022/01/17 15:28:28;;;;;;;1.67;0.77;;;11.40;35.60;;;;;;6253274;28;20493;-64
2022/01/17 15:31:35;;;;;;;1.60;0.77;;;11.30;36.00;;;;;;6257977;28;20477;-64
2022/01/17 15:34:40;;;;;;;1.20;0.90;;;11.30;36.70;;;;;;6277694;28;20548;-64
2022/01/17 15:37:43;;;;;;;1.50;0.80;;;11.20;37.40;;;;;;6277167;28;20989;-64
2022/01/17 15:40:46;;;;;;;0.80;0.70;;;11.10;36.90;;;;;;6259244;28;20482;-63
2022/01/17 15:43:54;;;;;;;1.17;0.73;;;11.10;36.80;;;;;;6252216;28;20470;-64
2022/01/17 15:46:58;;;;;;;1.43;0.70;;;11.10;36.90;;;;;;6251620;28;20613;-64
2022/01/17 15:50:01;;;;;;;2.20;0.70;;;11.00;37.20;;;;;;6252564;28;20475;-64
2022/01/17 15:53:05;;;;;;;0.67;0.57;;;10.90;37.50;;;;;;6253334;28;20467;-64
2022/01/17 15:56:08;;;;;;;1.50;0.70;;;10.80;37.50;;;;;;6252653;28;20907;-64
2022/01/17 15:59:11;;;;;;;1.37;0.80;;;10.80;37.50;;;;;;6248220;28;20486;-65
2022/01/17 16:02:16;;;;;;;0.73;0.70;;;10.80;38.20;;;;;;6252660;28;20490;-64
2022/01/17 16:05:19;;;;;;;0.90;0.73;;;10.70;38.30;;;;;;6252553;28;20479;-64
2022/01/17 16:08:22;;;;;;;0.60;0.60;;;10.70;38.50;;;;;;6252079;28;20612;-64
2022/01/17 16:11:26;;;;;;;2.50;1.00;;;10.60;38.60;;;;;;6251915;28;20566;-64